sensor_id;sensor_type;location;lat;lon;timestamp;P1;durP1;ratioP1;P2;durP2;ratioP2
781;SDS011;374;52.568;13.402;2022-12-18T01:49:21;32.33;;;14.30;;
781;SDS011;374;52.568;13.402;2022-12-18T01:52:00;30.17;;;15.60;;
781;SDS011;374;52.568;13.402;2022-12-18T01:54:36;30.47;;;15.50;;
781;SDS011;374;52.568;13.402;2022-12-18T01:57:06;31.53;;;16.70;;
781;SDS011;374;52.568;13.402;2022-12-18T01:59:40;21.00;;;14.27;;
781;SDS011;374;52.568;13.402;2022-12-18T02:30:41;26.30;;;15.70;;
781;SDS011;374;52.568;13.402;2022-12-18T02:33:39;29.43;;;14.70;;
781;SDS011;374;52.568;13.402;2022-12-18T02:36:19;33.57;;;16.20;;
781;SDS011;374;52.568;13.402;2022-12-18T02:39:33;32.83;;;15.13;;
781;SDS011;374;52.568;13.402;2022-12-18T02:42:39;30.80;;;15.53;;
781;SDS011;374;52.568;13.402;2022-12-18T02:45:46;30.37;;;15.53;;
781;SDS011;374;52.568;13.402;2022-12-18T02:59:16;40.97;;;16.70;;
781;SDS011;374;52.568;13.402;2022-12-18T03:05:31;30.60;;;15.17;;
781;SDS011;374;52.568;13.402;2022-12-18T03:08:13;37.87;;;17.07;;
781;SDS011;374;52.568;13.402;2022-12-18T03:10:59;37.87;;;17.93;;
781;SDS011;374;52.568;13.402;2022-12-18T03:13:51;43.50;;;18.70;;
781;SDS011;374;52.568;13.402;2022-12-18T03:16:25;36.10;;;17.60;;
781;SDS011;374;52.568;13.402;2022-12-18T03:19:02;30.80;;;16.27;;
781;SDS011;374;52.568;13.402;2022-12-18T03:21:51;33.87;;;19.47;;
781;SDS011;374;52.568;13.402;2022-12-18T03:24:48;37.80;;;17.70;;
781;SDS011;374;52.568;13.402;2022-12-18T03:31:11;30.73;;;18.10;;
781;SDS011;374;52.568;13.402;2022-12-18T03:33:58;42.67;;;20.80;;
781;SDS011;374;52.568;13.402;2022-12-18T03:36:48;39.93;;;18.83;;
781;SDS011;374;52.568;13.402;2022-12-18T03:39:15;48.57;;;22.30;;
781;SDS011;374;52.568;13.402;2022-12-18T03:41:44;46.27;;;21.53;;
781;SDS011;374;52.568;13.402;2022-12-18T03:44:40;48.73;;;22.43;;
781;SDS011;374;52.568;13.402;2022-12-18T03:50:09;55.73;;;26.70;;
781;SDS011;374;52.568;13.402;2022-12-18T03:55:43;48.73;;;23.73;;
781;SDS011;374;52.568;13.402;2022-12-18T03:58:19;48.43;;;22.87;;
781;SDS011;374;52.568;13.402;2022-12-18T04:01:02;48.17;;;24.33;;
781;SDS011;374;52.568;13.402;2022-12-18T04:03:40;39.00;;;22.47;;
781;SDS011;374;52.568;13.402;2022-12-18T04:06:11;43.33;;;20.63;;
781;SDS011;374;52.568;13.402;2022-12-18T04:08:43;48.23;;;21.43;;
781;SDS011;374;52.568;13.402;2022-12-18T04:11:32;49.97;;;22.50;;
781;SDS011;374;52.568;13.402;2022-12-18T04:14:14;41.47;;;20.50;;
781;SDS011;374;52.568;13.402;2022-12-18T04:16:51;31.73;;;17.97;;
781;SDS011;374;52.568;13.402;2022-12-18T04:19:22;34.30;;;17.13;;
781;SDS011;374;52.568;13.402;2022-12-18T04:22:05;42.37;;;18.23;;
781;SDS011;374;52.568;13.402;2022-12-18T04:24:41;34.87;;;17.47;;
781;SDS011;374;52.568;13.402;2022-12-18T04:41:17;32.93;;;17.20;;
781;SDS011;374;52.568;13.402;2022-12-18T04:44:12;28.00;;;14.60;;
781;SDS011;374;52.568;13.402;2022-12-18T04:47:04;31.93;;;16.43;;
781;SDS011;374;52.568;13.402;2022-12-18T04:49:42;33.10;;;15.87;;
781;SDS011;374;52.568;13.402;2022-12-18T04:52:21;35.20;;;16.10;;
781;SDS011;374;52.568;13.402;2022-12-18T04:55:30;31.13;;;16.27;;
781;SDS011;374;52.568;13.402;2022-12-18T04:58:57;26.30;;;13.93;;
781;SDS011;374;52.568;13.402;2022-12-18T05:02:10;26.73;;;13.87;;
781;SDS011;374;52.568;13.402;2022-12-18T05:04:48;31.03;;;17.07;;
781;SDS011;374;52.568;13.402;2022-12-18T05:07:20;31.97;;;14.97;;
781;SDS011;374;52.568;13.402;2022-12-18T05:09:51;32.57;;;15.90;;
781;SDS011;374;52.568;13.402;2022-12-18T05:12:23;30.30;;;15.13;;
781;SDS011;374;52.568;13.402;2022-12-18T05:15:31;29.90;;;14.77;;
781;SDS011;374;52.568;13.402;2022-12-18T05:18:03;30.00;;;15.43;;
781;SDS011;374;52.568;13.402;2022-12-18T05:20:36;29.07;;;14.80;;
781;SDS011;374;52.568;13.402;2022-12-18T05:23:13;28.37;;;14.10;;
781;SDS011;374;52.568;13.402;2022-12-18T05:25:50;27.73;;;14.50;;
781;SDS011;374;52.568;13.402;2022-12-18T05:28:30;26.40;;;15.27;;
781;SDS011;374;52.568;13.402;2022-12-18T05:31:02;26.83;;;13.93;;
781;SDS011;374;52.568;13.402;2022-12-18T05:33:35;31.50;;;15.07;;
781;SDS011;374;52.568;13.402;2022-12-18T05:36:14;27.90;;;14.03;;
781;SDS011;374;52.568;13.402;2022-12-18T05:38:45;28.63;;;16.07;;
781;SDS011;374;52.568;13.402;2022-12-18T05:41:35;30.90;;;16.63;;
781;SDS011;374;52.568;13.402;2022-12-18T05:44:23;29.43;;;13.20;;
781;SDS011;374;52.568;13.402;2022-12-18T05:47:08;28.17;;;13.43;;
781;SDS011;374;52.568;13.402;2022-12-18T05:49:46;32.30;;;16.00;;
781;SDS011;374;52.568;13.402;2022-12-18T05:52:35;24.60;;;12.93;;
781;SDS011;374;52.568;13.402;2022-12-18T05:55:21;29.43;;;13.97;;
781;SDS011;374;52.568;13.402;2022-12-18T05:58:38;31.70;;;13.85;;
781;SDS011;374;52.568;13.402;2022-12-18T06:01:21;22.80;;;12.90;;
781;SDS011;374;52.568;13.402;2022-12-18T06:04:33;30.13;;;14.27;;
781;SDS011;374;52.568;13.402;2022-12-18T06:07:22;27.53;;;13.13;;
781;SDS011;374;52.568;13.402;2022-12-18T06:10:28;31.97;;;14.93;;
781;SDS011;374;52.568;13.402;2022-12-18T06:13:49;24.00;;;12.43;;
781;SDS011;374;52.568;13.402;2022-12-18T06:17:00;30.10;;;16.13;;
781;SDS011;374;52.568;13.402;2022-12-18T06:20:13;35.63;;;15.37;;
781;SDS011;374;52.568;13.402;2022-12-18T06:23:12;29.10;;;14.80;;
781;SDS011;374;52.568;13.402;2022-12-18T06:29:25;35.43;;;15.13;;
781;SDS011;374;52.568;13.402;2022-12-18T06:31:57;35.60;;;17.00;;
781;SDS011;374;52.568;13.402;2022-12-18T06:34:27;31.53;;;15.63;;
781;SDS011;374;52.568;13.402;2022-12-18T06:37:26;31.03;;;16.60;;
781;SDS011;374;52.568;13.402;2022-12-18T06:40:09;40.07;;;16.50;;
781;SDS011;374;52.568;13.402;2022-12-18T06:43:05;39.07;;;16.23;;
781;SDS011;374;52.568;13.402;2022-12-18T06:46:10;35.83;;;16.40;;
781;SDS011;374;52.568;13.402;2022-12-18T06:49:02;38.67;;;16.80;;
781;SDS011;374;52.568;13.402;2022-12-18T06:51:56;40.00;;;16.93;;
781;SDS011;374;52.568;13.402;2022-12-18T06:54:50;38.03;;;17.03;;
781;SDS011;374;52.568;13.402;2022-12-18T06:57:38;28.53;;;16.40;;
781;SDS011;374;52.568;13.402;2022-12-18T07:04:02;41.43;;;15.97;;
781;SDS011;374;52.568;13.402;2022-12-18T07:06:41;35.43;;;17.80;;
781;SDS011;374;52.568;13.402;2022-12-18T07:09:10;35.13;;;17.30;;
781;SDS011;374;52.568;13.402;2022-12-18T07:11:49;38.40;;;17.20;;
781;SDS011;374;52.568;13.402;2022-12-18T07:14:29;39.67;;;18.17;;
781;SDS011;374;52.568;13.402;2022-12-18T07:17:17;40.50;;;17.90;;
781;SDS011;374;52.568;13.402;2022-12-18T07:20:10;41.50;;;19.13;;
781;SDS011;374;52.568;13.402;2022-12-18T07:23:03;41.37;;;17.47;;
781;SDS011;374;52.568;13.402;2022-12-18T07:25:59;39.17;;;16.53;;
781;SDS011;374;52.568;13.402;2022-12-18T07:28:47;46.70;;;18.90;;
781;SDS011;374;52.568;13.402;2022-12-18T07:31:36;39.70;;;17.30;;
781;SDS011;374;52.568;13.402;2022-12-18T07:52:37;32.97;;;15.03;;
781;SDS011;374;52.568;13.402;2022-12-18T07:55:08;39.47;;;17.77;;
781;SDS011;374;52.568;13.402;2022-12-18T07:58:00;36.30;;;17.23;;
781;SDS011;374;52.568;13.402;2022-12-18T08:00:31;34.97;;;17.10;;
781;SDS011;374;52.568;13.402;2022-12-18T08:03:11;48.03;;;18.50;;
781;SDS011;374;52.568;13.402;2022-12-18T08:05:41;38.40;;;18.63;;
781;SDS011;374;52.568;13.402;2022-12-18T08:08:11;38.87;;;17.70;;
781;SDS011;374;52.568;13.402;2022-12-18T08:10:48;36.57;;;15.87;;
781;SDS011;374;52.568;13.402;2022-12-18T08:13:19;31.77;;;15.67;;
781;SDS011;374;52.568;13.402;2022-12-18T08:16:06;39.07;;;15.50;;
781;SDS011;374;52.568;13.402;2022-12-18T08:18:37;31.83;;;15.60;;
781;SDS011;374;52.568;13.402;2022-12-18T08:21:24;32.53;;;17.03;;
781;SDS011;374;52.568;13.402;2022-12-18T08:24:07;37.87;;;17.30;;
781;SDS011;374;52.568;13.402;2022-12-18T08:26:47;36.93;;;16.20;;
781;SDS011;374;52.568;13.402;2022-12-18T08:29:28;41.57;;;18.07;;
781;SDS011;374;52.568;13.402;2022-12-18T08:32:00;32.73;;;17.53;;
781;SDS011;374;52.568;13.402;2022-12-18T08:41:59;31.73;;;16.67;;
781;SDS011;374;52.568;13.402;2022-12-18T08:44:53;34.80;;;18.03;;
781;SDS011;374;52.568;13.402;2022-12-18T08:47:21;31.43;;;16.10;;
781;SDS011;374;52.568;13.402;2022-12-18T08:49:51;30.65;;;15.73;;
781;SDS011;374;52.568;13.402;2022-12-18T08:52:42;33.00;;;17.10;;
781;SDS011;374;52.568;13.402;2022-12-18T08:55:12;36.73;;;18.00;;
781;SDS011;374;52.568;13.402;2022-12-18T08:57:38;32.13;;;15.93;;
781;SDS011;374;52.568;13.402;2022-12-18T09:00:07;28.07;;;14.77;;
781;SDS011;374;52.568;13.402;2022-12-18T09:02:49;27.93;;;14.53;;
781;SDS011;374;52.568;13.402;2022-12-18T09:05:25;28.77;;;14.90;;
781;SDS011;374;52.568;13.402;2022-12-18T09:07:59;33.63;;;14.53;;
781;SDS011;374;52.568;13.402;2022-12-18T09:10:40;33.60;;;15.67;;
781;SDS011;374;52.568;13.402;2022-12-18T09:13:26;30.57;;;14.50;;
781;SDS011;374;52.568;13.402;2022-12-18T09:16:03;26.17;;;14.30;;
781;SDS011;374;52.568;13.402;2022-12-18T09:19:03;26.97;;;14.63;;
781;SDS011;374;52.568;13.402;2022-12-18T09:21:30;38.28;;;17.13;;
781;SDS011;374;52.568;13.402;2022-12-18T09:23:57;27.65;;;15.68;;
781;SDS011;374;52.568;13.402;2022-12-18T09:26:24;31.67;;;17.03;;
781;SDS011;374;52.568;13.402;2022-12-18T09:28:50;26.73;;;14.97;;
781;SDS011;374;52.568;13.402;2022-12-18T09:31:17;36.93;;;16.00;;
781;SDS011;374;52.568;13.402;2022-12-18T09:33:44;34.70;;;16.77;;
781;SDS011;374;52.568;13.402;2022-12-18T09:36:11;29.30;;;15.37;;
781;SDS011;374;52.568;13.402;2022-12-18T09:38:39;31.23;;;18.23;;
781;SDS011;374;52.568;13.402;2022-12-18T09:41:32;31.63;;;14.30;;
781;SDS011;374;52.568;13.402;2022-12-18T09:43:59;25.40;;;15.00;;
781;SDS011;374;52.568;13.402;2022-12-18T09:50:40;34.25;;;16.83;;
781;SDS011;374;52.568;13.402;2022-12-18T09:53:39;30.93;;;15.10;;
781;SDS011;374;52.568;13.402;2022-12-18T09:56:45;30.87;;;16.10;;
781;SDS011;374;52.568;13.402;2022-12-18T10:00:39;29.43;;;16.80;;
781;SDS011;374;52.568;13.402;2022-12-18T10:03:09;29.80;;;15.60;;
781;SDS011;374;52.568;13.402;2022-12-18T10:06:07;28.67;;;15.20;;
781;SDS011;374;52.568;13.402;2022-12-18T10:12:32;27.17;;;14.73;;
781;SDS011;374;52.568;13.402;2022-12-18T10:15:34;29.60;;;14.90;;
781;SDS011;374;52.568;13.402;2022-12-18T10:21:58;32.65;;;15.40;;
781;SDS011;374;52.568;13.402;2022-12-18T10:25:15;33.23;;;13.67;;
781;SDS011;374;52.568;13.402;2022-12-18T10:34:54;30.60;;;17.05;;
781;SDS011;374;52.568;13.402;2022-12-18T10:37:38;37.17;;;16.40;;
781;SDS011;374;52.568;13.402;2022-12-18T10:40:53;29.40;;;15.80;;
781;SDS011;374;52.568;13.402;2022-12-18T10:43:36;31.30;;;15.67;;
781;SDS011;374;52.568;13.402;2022-12-18T10:48:40;38.97;;;16.67;;
781;SDS011;374;52.568;13.402;2022-12-18T10:51:23;36.20;;;16.97;;
781;SDS011;374;52.568;13.402;2022-12-18T10:53:52;36.33;;;16.27;;
781;SDS011;374;52.568;13.402;2022-12-18T10:56:35;32.87;;;14.47;;
781;SDS011;374;52.568;13.402;2022-12-18T10:59:50;29.30;;;14.83;;
781;SDS011;374;52.568;13.402;2022-12-18T11:02:37;31.70;;;15.20;;
781;SDS011;374;52.568;13.402;2022-12-18T11:05:22;43.17;;;18.83;;
781;SDS011;374;52.568;13.402;2022-12-18T11:07:51;34.03;;;17.93;;
781;SDS011;374;52.568;13.402;2022-12-18T11:10:26;38.33;;;16.97;;
781;SDS011;374;52.568;13.402;2022-12-18T11:15:54;37.33;;;17.30;;
781;SDS011;374;52.568;13.402;2022-12-18T11:18:28;37.90;;;17.37;;
781;SDS011;374;52.568;13.402;2022-12-18T11:21:07;36.53;;;16.10;;
781;SDS011;374;52.568;13.402;2022-12-18T11:23:37;36.47;;;16.93;;
781;SDS011;374;52.568;13.402;2022-12-18T11:26:12;38.77;;;18.17;;
781;SDS011;374;52.568;13.402;2022-12-18T11:28:43;37.73;;;17.13;;
781;SDS011;374;52.568;13.402;2022-12-18T11:31:28;38.83;;;16.73;;
781;SDS011;374;52.568;13.402;2022-12-18T11:34:02;42.23;;;17.20;;
781;SDS011;374;52.568;13.402;2022-12-18T11:36:45;36.80;;;17.27;;
781;SDS011;374;52.568;13.402;2022-12-18T11:39:27;28.73;;;15.70;;
781;SDS011;374;52.568;13.402;2022-12-18T11:44:51;29.67;;;16.70;;
781;SDS011;374;52.568;13.402;2022-12-18T11:47:29;40.80;;;17.30;;
781;SDS011;374;52.568;13.402;2022-12-18T11:50:38;28.67;;;14.43;;
781;SDS011;374;52.568;13.402;2022-12-18T11:53:14;29.77;;;15.70;;
781;SDS011;374;52.568;13.402;2022-12-18T11:55:47;31.03;;;16.13;;
781;SDS011;374;52.568;13.402;2022-12-18T11:58:42;31.00;;;14.17;;
781;SDS011;374;52.568;13.402;2022-12-18T12:04:02;33.60;;;17.47;;
781;SDS011;374;52.568;13.402;2022-12-18T12:06:58;30.13;;;15.40;;
781;SDS011;374;52.568;13.402;2022-12-18T12:09:44;44.90;;;17.57;;
781;SDS011;374;52.568;13.402;2022-12-18T12:12:31;31.73;;;16.87;;
781;SDS011;374;52.568;13.402;2022-12-18T12:15:31;34.13;;;16.00;;
781;SDS011;374;52.568;13.402;2022-12-18T12:27:07;34.47;;;16.07;;
781;SDS011;374;52.568;13.402;2022-12-18T12:35:42;31.23;;;14.10;;
781;SDS011;374;52.568;13.402;2022-12-18T12:38:22;26.10;;;14.67;;
781;SDS011;374;52.568;13.402;2022-12-18T12:41:05;35.13;;;17.60;;
781;SDS011;374;52.568;13.402;2022-12-18T12:43:54;32.17;;;15.87;;
781;SDS011;374;52.568;13.402;2022-12-18T12:46:32;36.27;;;15.50;;
781;SDS011;374;52.568;13.402;2022-12-18T12:49:09;34.37;;;16.53;;
781;SDS011;374;52.568;13.402;2022-12-18T12:51:43;30.27;;;15.93;;
781;SDS011;374;52.568;13.402;2022-12-18T12:54:17;33.53;;;16.10;;
781;SDS011;374;52.568;13.402;2022-12-18T12:56:48;27.00;;;15.20;;
781;SDS011;374;52.568;13.402;2022-12-18T12:59:34;26.03;;;14.17;;
781;SDS011;374;52.568;13.402;2022-12-18T13:02:35;29.70;;;16.60;;
781;SDS011;374;52.568;13.402;2022-12-18T13:08:08;33.73;;;16.10;;
781;SDS011;374;52.568;13.402;2022-12-18T13:10:46;29.33;;;15.27;;
781;SDS011;374;52.568;13.402;2022-12-18T13:13:15;36.23;;;18.30;;
781;SDS011;374;52.568;13.402;2022-12-18T13:16:03;32.83;;;16.63;;
781;SDS011;374;52.568;13.402;2022-12-18T13:18:31;29.43;;;16.47;;
781;SDS011;374;52.568;13.402;2022-12-18T13:23:35;31.60;;;16.83;;
781;SDS011;374;52.568;13.402;2022-12-18T13:34:18;28.90;;;16.10;;
781;SDS011;374;52.568;13.402;2022-12-18T13:43:28;26.27;;;14.67;;
781;SDS011;374;52.568;13.402;2022-12-18T13:49:24;26.03;;;14.10;;
781;SDS011;374;52.568;13.402;2022-12-18T13:52:21;29.90;;;16.13;;
781;SDS011;374;52.568;13.402;2022-12-18T13:54:53;29.97;;;15.23;;
781;SDS011;374;52.568;13.402;2022-12-18T13:57:39;25.67;;;15.80;;
781;SDS011;374;52.568;13.402;2022-12-18T14:02:48;22.60;;;15.20;;
781;SDS011;374;52.568;13.402;2022-12-18T14:05:27;29.83;;;15.13;;
781;SDS011;374;52.568;13.402;2022-12-18T14:08:05;24.37;;;15.10;;
781;SDS011;374;52.568;13.402;2022-12-18T14:26:49;29.67;;;15.77;;
781;SDS011;374;52.568;13.402;2022-12-18T14:32:26;32.80;;;18.03;;
781;SDS011;374;52.568;13.402;2022-12-18T14:38:20;30.43;;;15.60;;
781;SDS011;374;52.568;13.402;2022-12-18T14:44:04;28.57;;;14.83;;
781;SDS011;374;52.568;13.402;2022-12-18T14:49:23;26.20;;;16.00;;
781;SDS011;374;52.568;13.402;2022-12-18T14:52:17;19.20;;;12.87;;
781;SDS011;374;52.568;13.402;2022-12-18T14:58:32;21.17;;;13.23;;
781;SDS011;374;52.568;13.402;2022-12-18T15:01:48;21.93;;;12.27;;
781;SDS011;374;52.568;13.402;2022-12-18T15:04:46;27.53;;;13.43;;
781;SDS011;374;52.568;13.402;2022-12-18T15:07:52;24.70;;;14.00;;
781;SDS011;374;52.568;13.402;2022-12-18T15:10:24;23.33;;;14.60;;
781;SDS011;374;52.568;13.402;2022-12-18T15:15:58;24.83;;;15.20;;
781;SDS011;374;52.568;13.402;2022-12-18T15:18:32;25.97;;;14.77;;
781;SDS011;374;52.568;13.402;2022-12-18T15:21:16;25.93;;;15.50;;
781;SDS011;374;52.568;13.402;2022-12-18T15:33:25;24.80;;;15.17;;
781;SDS011;374;52.568;13.402;2022-12-18T15:35:56;22.23;;;13.13;;
781;SDS011;374;52.568;13.402;2022-12-18T15:47:50;20.60;;;12.63;;
781;SDS011;374;52.568;13.402;2022-12-18T15:50:18;22.30;;;14.60;;
781;SDS011;374;52.568;13.402;2022-12-18T15:52:44;22.83;;;13.03;;
781;SDS011;374;52.568;13.402;2022-12-18T17:03:04;26.07;;;15.13;;
781;SDS011;374;52.568;13.402;2022-12-18T17:12:20;26.20;;;14.50;;
781;SDS011;374;52.568;13.402;2022-12-18T17:15:05;30.13;;;16.27;;
781;SDS011;374;52.568;13.402;2022-12-18T17:17:49;25.87;;;14.57;;
781;SDS011;374;52.568;13.402;2022-12-18T17:20:29;19.83;;;14.57;;
781;SDS011;374;52.568;13.402;2022-12-18T17:22:55;25.33;;;15.63;;
781;SDS011;374;52.568;13.402;2022-12-18T17:25:23;25.60;;;14.70;;
781;SDS011;374;52.568;13.402;2022-12-18T17:34:00;26.63;;;15.00;;
781;SDS011;374;52.568;13.402;2022-12-18T17:39:47;33.10;;;18.43;;
781;SDS011;374;52.568;13.402;2022-12-18T17:50:24;25.97;;;17.03;;
781;SDS011;374;52.568;13.402;2022-12-18T17:52:54;33.30;;;16.70;;
781;SDS011;374;52.568;13.402;2022-12-18T17:55:20;31.40;;;16.77;;
781;SDS011;374;52.568;13.402;2022-12-18T17:57:46;33.90;;;17.77;;
781;SDS011;374;52.568;13.402;2022-12-18T18:00:12;25.40;;;16.90;;
781;SDS011;374;52.568;13.402;2022-12-18T18:02:38;29.77;;;16.20;;
781;SDS011;374;52.568;13.402;2022-12-18T18:05:06;31.50;;;18.60;;
781;SDS011;374;52.568;13.402;2022-12-18T18:07:32;32.00;;;18.93;;
781;SDS011;374;52.568;13.402;2022-12-18T18:09:57;32.93;;;19.17;;
781;SDS011;374;52.568;13.402;2022-12-18T18:12:23;28.57;;;20.37;;
781;SDS011;374;52.568;13.402;2022-12-18T18:15:07;26.50;;;17.43;;
781;SDS011;374;52.568;13.402;2022-12-18T18:17:33;32.47;;;16.83;;
781;SDS011;374;52.568;13.402;2022-12-18T18:19:59;36.53;;;17.87;;
781;SDS011;374;52.568;13.402;2022-12-18T18:22:24;32.37;;;18.67;;
781;SDS011;374;52.568;13.402;2022-12-18T18:24:50;34.10;;;19.10;;
781;SDS011;374;52.568;13.402;2022-12-18T18:30:09;26.70;;;17.57;;
781;SDS011;374;52.568;13.402;2022-12-18T18:32:35;32.50;;;19.27;;
781;SDS011;374;52.568;13.402;2022-12-18T18:38:26;36.50;;;17.43;;
781;SDS011;374;52.568;13.402;2022-12-18T18:40:57;31.70;;;19.20;;
781;SDS011;374;52.568;13.402;2022-12-18T18:43:29;35.20;;;18.20;;
781;SDS011;374;52.568;13.402;2022-12-18T18:45:56;34.17;;;20.53;;
781;SDS011;374;52.568;13.402;2022-12-18T18:48:22;30.20;;;18.70;;
781;SDS011;374;52.568;13.402;2022-12-18T18:50:55;32.80;;;20.23;;
781;SDS011;374;52.568;13.402;2022-12-18T18:53:22;33.27;;;19.03;;
781;SDS011;374;52.568;13.402;2022-12-18T18:55:47;30.17;;;17.27;;
781;SDS011;374;52.568;13.402;2022-12-18T18:58:13;32.63;;;18.93;;
781;SDS011;374;52.568;13.402;2022-12-18T19:00:38;35.37;;;20.63;;
781;SDS011;374;52.568;13.402;2022-12-18T19:03:04;38.23;;;20.60;;
781;SDS011;374;52.568;13.402;2022-12-18T19:05:30;33.97;;;20.07;;
781;SDS011;374;52.568;13.402;2022-12-18T19:07:56;42.30;;;20.90;;
781;SDS011;374;52.568;13.402;2022-12-18T19:10:21;32.17;;;19.00;;
781;SDS011;374;52.568;13.402;2022-12-18T19:12:47;33.40;;;18.63;;
781;SDS011;374;52.568;13.402;2022-12-18T19:15:32;41.87;;;21.90;;
781;SDS011;374;52.568;13.402;2022-12-18T19:17:59;32.03;;;20.27;;
781;SDS011;374;52.568;13.402;2022-12-18T19:20:25;38.30;;;21.17;;
781;SDS011;374;52.568;13.402;2022-12-18T19:22:59;29.77;;;18.80;;
781;SDS011;374;52.568;13.402;2022-12-18T19:25:39;40.07;;;21.37;;
781;SDS011;374;52.568;13.402;2022-12-18T19:29:02;35.93;;;18.43;;
781;SDS011;374;52.568;13.402;2022-12-18T20:11:28;34.77;;;19.40;;
781;SDS011;374;52.568;13.402;2022-12-18T20:13:54;35.47;;;19.83;;
781;SDS011;374;52.568;13.402;2022-12-18T20:16:26;47.77;;;20.80;;
781;SDS011;374;52.568;13.402;2022-12-18T20:19:22;37.20;;;18.87;;
781;SDS011;374;52.568;13.402;2022-12-18T20:21:48;37.00;;;19.77;;
781;SDS011;374;52.568;13.402;2022-12-18T20:24:17;40.40;;;19.77;;
781;SDS011;374;52.568;13.402;2022-12-18T20:26:51;34.67;;;18.43;;
781;SDS011;374;52.568;13.402;2022-12-18T20:29:26;35.57;;;21.80;;
781;SDS011;374;52.568;13.402;2022-12-18T20:32:03;38.13;;;20.17;;
781;SDS011;374;52.568;13.402;2022-12-18T20:34:37;38.60;;;20.33;;
781;SDS011;374;52.568;13.402;2022-12-18T20:37:06;35.80;;;19.97;;
781;SDS011;374;52.568;13.402;2022-12-18T20:42:29;37.30;;;20.50;;
781;SDS011;374;52.568;13.402;2022-12-18T20:44:55;38.40;;;18.13;;
781;SDS011;374;52.568;13.402;2022-12-18T20:47:23;38.17;;;19.40;;
781;SDS011;374;52.568;13.402;2022-12-18T20:49:51;34.53;;;20.07;;
781;SDS011;374;52.568;13.402;2022-12-18T20:52:20;35.97;;;19.23;;
781;SDS011;374;52.568;13.402;2022-12-18T21:08:53;28.50;;;18.70;;
781;SDS011;374;52.568;13.402;2022-12-18T21:11:34;35.40;;;18.80;;
781;SDS011;374;52.568;13.402;2022-12-18T21:14:28;35.28;;;18.50;;
781;SDS011;374;52.568;13.402;2022-12-18T21:21:05;34.20;;;19.20;;
781;SDS011;374;52.568;13.402;2022-12-18T21:23:37;34.27;;;17.17;;
781;SDS011;374;52.568;13.402;2022-12-18T21:43:11;29.97;;;16.27;;
781;SDS011;374;52.568;13.402;2022-12-18T21:46:13;39.07;;;17.90;;
781;SDS011;374;52.568;13.402;2022-12-18T21:48:48;36.37;;;18.77;;
781;SDS011;374;52.568;13.402;2022-12-18T22:04:29;32.93;;;17.20;;
781;SDS011;374;52.568;13.402;2022-12-18T22:13:31;28.83;;;15.97;;
781;SDS011;374;52.568;13.402;2022-12-18T22:15:57;29.50;;;17.70;;
781;SDS011;374;52.568;13.402;2022-12-18T22:18:44;30.03;;;15.87;;
781;SDS011;374;52.568;13.402;2022-12-18T22:24:25;31.80;;;16.60;;
781;SDS011;374;52.568;13.402;2022-12-18T22:26:53;30.20;;;16.90;;
781;SDS011;374;52.568;13.402;2022-12-18T22:29:19;28.80;;;16.40;;
781;SDS011;374;52.568;13.402;2022-12-18T22:32:09;25.10;;;16.07;;
781;SDS011;374;52.568;13.402;2022-12-18T22:34:47;27.70;;;17.27;;
781;SDS011;374;52.568;13.402;2022-12-18T22:37:13;30.17;;;17.40;;
781;SDS011;374;52.568;13.402;2022-12-18T22:39:38;26.87;;;16.60;;
781;SDS011;374;52.568;13.402;2022-12-18T22:42:04;31.90;;;16.53;;
781;SDS011;374;52.568;13.402;2022-12-18T22:44:31;33.77;;;16.10;;
781;SDS011;374;52.568;13.402;2022-12-18T22:46:57;29.03;;;17.77;;
781;SDS011;374;52.568;13.402;2022-12-18T22:50:14;30.53;;;15.67;;
781;SDS011;374;52.568;13.402;2022-12-18T22:52:58;30.60;;;17.40;;
781;SDS011;374;52.568;13.402;2022-12-18T22:55:44;29.50;;;17.00;;
781;SDS011;374;52.568;13.402;2022-12-18T22:58:10;28.60;;;16.10;;
781;SDS011;374;52.568;13.402;2022-12-18T23:00:37;26.93;;;15.70;;
781;SDS011;374;52.568;13.402;2022-12-18T23:03:04;31.20;;;15.40;;
781;SDS011;374;52.568;13.402;2022-12-18T23:05:30;23.57;;;15.10;;
781;SDS011;374;52.568;13.402;2022-12-18T23:08:04;28.00;;;16.13;;
781;SDS011;374;52.568;13.402;2022-12-18T23:10:29;28.10;;;16.90;;
781;SDS011;374;52.568;13.402;2022-12-18T23:13:01;27.33;;;15.03;;
781;SDS011;374;52.568;13.402;2022-12-18T23:15:27;30.57;;;17.00;;
781;SDS011;374;52.568;13.402;2022-12-18T23:17:52;30.50;;;17.47;;
781;SDS011;374;52.568;13.402;2022-12-18T23:20:18;27.90;;;14.53;;
781;SDS011;374;52.568;13.402;2022-12-18T23:22:48;32.37;;;16.50;;
781;SDS011;374;52.568;13.402;2022-12-18T23:28:08;26.60;;;15.33;;
781;SDS011;374;52.568;13.402;2022-12-18T23:33:54;25.70;;;15.07;;
781;SDS011;374;52.568;13.402;2022-12-18T23:43:32;28.50;;;14.77;;
781;SDS011;374;52.568;13.402;2022-12-18T23:45:57;24.40;;;15.10;;
781;SDS011;374;52.568;13.402;2022-12-18T23:48:23;26.53;;;14.20;;
781;SDS011;374;52.568;13.402;2022-12-18T23:50:48;28.27;;;15.60;;
781;SDS011;374;52.568;13.402;2022-12-18T23:53:14;30.67;;;16.03;;
781;SDS011;374;52.568;13.402;2022-12-18T23:55:40;28.57;;;15.77;;
781;SDS011;374;52.568;13.402;2022-12-18T23:58:15;27.03;;;16.67;;
